Cedar Canyon, South Dakota
Current Conditions -  °F | °C
As of 10:55 PM on Tuesday 21 Oct 2014 (Local Time) from KSPF Reporting Station
Scattered Clouds Scattered Clouds  
Wind Chill: 66°   Ceiling: Unl
Heat Index: 66°   Visibility: 10mi
Dew Point: 39°   Wind: 13mph
Humidity: 37%   Direction: 240°WSW
Pressure: 29.81"   Gusts: NA
Location:  44.9094°N, 103.193°W
Report Text: KSPF 220455Z AUTO 24011KT 10SM SCT110 19/04 A2981 RMK AO2
Loading
Personal Weather Stations






























Interactive Weather Map
Tropical Storm Tracking
New forecast layout! Learn more

10-Day Weather Forecast

Advertisements
Track Severe Weather on mobile